Time;durP1;ratioP1;P1;durP2;ratioP2;P2;SDS_P1;SDS_P2;PMS_P1;PMS_P2;Temp;Humidity;BMP_temperature;BMP_pressure;BME280_temperature;BME280_humidity;BME280_pressure;Samples;Min_cycle;Max_cycle;Signal;HPM_P1;HPM_P2
2023/08/21 00:00:52;;;;;;;16.38;10.82;;;;;;;20.00;72.28;97971.28;10366804;28;20017;-55
2023/08/21 00:05:51;;;;;;;15.05;10.23;;;;;;;19.97;72.04;97963.50;10366101;28;20060;-55
2023/08/21 00:10:50;;;;;;;15.18;11.15;;;;;;;19.94;72.71;97974.16;10366235;28;20064;-55
2023/08/21 00:15:49;;;;;;;15.27;10.63;;;;;;;19.80;73.06;97975.50;10366114;28;20031;-55
2023/08/21 00:20:48;;;;;;;15.35;9.70;;;;;;;19.63;73.33;97981.34;10372022;28;20020;-55
2023/08/21 00:25:47;;;;;;;12.27;10.98;;;;;;;19.12;74.98;97936.53;10372181;28;20025;-56
2023/08/21 00:30:46;;;;;;;14.23;11.02;;;;;;;19.20;75.99;97990.59;10373042;28;20059;-55
2023/08/21 00:35:48;;;;;;;16.42;11.35;;;;;;;19.13;76.29;97985.59;10371251;28;20111;-55
2023/08/21 00:40:47;;;;;;;14.57;11.73;;;;;;;19.08;76.55;97983.13;10369444;28;20052;-55
2023/08/21 00:45:49;;;;;;;15.88;11.95;;;;;;;19.06;76.66;97987.56;10368793;28;20049;-55
2023/08/21 00:50:49;;;;;;;16.20;12.07;;;;;;;19.00;77.04;97991.25;10367466;28;20091;-55
2023/08/21 00:55:48;;;;;;;17.40;11.50;;;;;;;18.97;76.97;97977.31;10368236;28;20056;-55
2023/08/21 01:00:50;;;;;;;15.30;11.77;;;;;;;18.87;77.15;97958.34;10368367;28;20060;-55
2023/08/21 01:05:49;;;;;;;13.02;11.55;;;;;;;18.96;77.26;97975.63;10368398;28;20109;-55
2023/08/21 01:10:59;;;;;;;16.58;11.88;;;;;;;18.81;77.46;97958.56;10367997;28;20115;-55
2023/08/21 01:15:58;;;;;;;15.95;12.30;;;;;;;18.96;77.57;97973.84;10367703;28;20494;-55
2023/08/21 01:20:58;;;;;;;15.70;12.77;;;;;;;18.83;78.40;97969.91;10367852;28;20115;-55
2023/08/21 01:25:57;;;;;;;16.17;13.20;;;;;;;18.85;78.23;97962.78;10367060;28;20382;-55
2023/08/21 01:31:00;;;;;;;16.25;12.38;;;;;;;18.82;78.43;97969.00;10366828;28;20603;-55
2023/08/21 01:36:03;;;;;;;20.13;13.68;;;;;;;18.54;78.75;97921.66;10366717;28;20064;-55
2023/08/21 01:41:02;;;;;;;21.75;14.13;;;;;;;18.78;78.66;97971.78;10366511;28;20107;-55
2023/08/21 01:46:03;;;;;;;19.20;14.48;;;;;;;18.76;78.67;97979.72;10367009;28;20083;-55
2023/08/21 01:51:02;;;;;;;16.73;14.13;;;;;;;18.72;78.92;97977.25;10366914;28;20563;-55
2023/08/21 01:56:01;;;;;;;21.38;17.55;;;;;;;18.61;78.70;97964.38;10365972;28;20057;-55
2023/08/21 02:01:00;;;;;;;35.75;25.45;;;;;;;18.50;79.62;97967.34;10366505;28;20343;-55
2023/08/21 02:05:59;;;;;;;40.92;30.10;;;;;;;18.44;79.95;97967.50;10365641;28;20519;-55
2023/08/21 02:10:58;;;;;;;42.75;31.33;;;;;;;18.39;80.08;97969.41;10368460;28;20025;-55
2023/08/21 02:15:57;;;;;;;49.00;34.50;;;;;;;18.14;80.13;97938.59;10368354;28;20056;-55
2023/08/21 02:20:56;;;;;;;42.60;32.50;;;;;;;18.13;81.33;97970.16;10368719;28;20060;-55
2023/08/21 02:25:56;;;;;;;40.65;28.65;;;;;;;18.06;81.35;97961.59;10367708;28;20060;-55
2023/08/21 02:30:55;;;;;;;35.15;25.95;;;;;;;18.06;81.85;97966.84;10368481;28;20547;-55
2023/08/21 02:35:54;;;;;;;35.05;24.55;;;;;;;17.91;82.35;97964.63;10369564;28;20438;-55
2023/08/21 02:40:53;;;;;;;33.92;24.70;;;;;;;17.71;82.56;97942.38;10371005;28;20063;-55
2023/08/21 02:45:51;;;;;;;32.67;24.27;;;;;;;17.54;82.70;97926.19;10370365;28;20037;-55
2023/08/21 02:50:50;;;;;;;33.92;24.65;;;;;;;17.83;82.05;97958.72;10370998;28;20037;-55
2023/08/21 02:55:49;;;;;;;33.28;24.35;;;;;;;17.79;81.73;97946.59;10370424;28;20119;-56
2023/08/21 03:00:48;;;;;;;30.73;23.90;;;;;;;17.92;82.01;97963.75;10370590;28;20099;-56
2023/08/21 03:05:47;;;;;;;30.27;24.05;;;;;;;17.67;82.02;97953.00;10368352;28;20021;-56
2023/08/21 03:10:46;;;;;;;28.88;21.25;;;;;;;17.72;82.33;97957.19;10369879;28;20547;-55
2023/08/21 03:15:45;;;;;;;23.92;19.42;;;;;;;17.68;82.76;97973.97;10369827;28;20362;-55
2023/08/21 03:20:47;;;;;;;29.17;20.27;;;;;;;17.64;82.60;97968.81;10370542;28;20021;-55
2023/08/21 03:25:46;;;;;;;24.13;18.98;;;;;;;17.62;82.80;97979.34;10369138;28;20051;-55
2023/08/21 03:30:45;;;;;;;26.58;17.98;;;;;;;17.65;82.68;97976.63;10370013;28;20025;-55
2023/08/21 03:35:44;;;;;;;18.98;16.38;;;;;;;17.69;82.48;97977.44;10368265;28;20036;-55
2023/08/21 03:40:43;;;;;;;24.38;16.50;;;;;;;17.68;82.25;97979.22;10366629;28;20111;-55
2023/08/21 03:45:42;;;;;;;26.58;17.42;;;;;;;17.69;82.46;97972.19;10366273;28;20072;-55
2023/08/21 03:50:41;;;;;;;22.67;15.68;;;;;;;17.25;82.37;97898.09;10365472;28;20044;-56
2023/08/21 03:55:40;;;;;;;21.60;13.65;;;;;;;17.34;82.61;97927.56;10372898;28;20119;-55
2023/08/21 04:00:39;;;;;;;18.88;15.32;;;;;;;17.37;82.72;97941.53;10373892;28;20039;-55
2023/08/21 04:05:38;;;;;;;24.10;15.93;;;;;;;17.75;82.02;97995.63;10372767;28;20029;-55
2023/08/21 04:10:38;;;;;;;21.45;16.08;;;;;;;17.73;82.05;98000.06;10373190;28;20123;-55
2023/08/21 04:15:37;;;;;;;23.38;16.13;;;;;;;17.54;82.10;97963.81;10373567;28;20139;-55
2023/08/21 04:20:37;;;;;;;23.60;15.95;;;;;;;17.45;81.72;97926.44;10373076;28;20052;-55
2023/08/21 04:25:36;;;;;;;23.70;14.40;;;;;;;17.80;81.17;97977.16;10373479;28;20079;-56
2023/08/21 04:30:35;;;;;;;28.30;15.05;;;;;;;17.75;81.33;97972.00;10372536;28;20433;-55
2023/08/21 04:35:38;;;;;;;23.17;13.95;;;;;;;17.98;81.59;98008.19;10371616;28;20076;-55
2023/08/21 04:40:37;;;;;;;27.20;14.02;;;;;;;18.10;81.49;98015.72;10370131;28;20068;-55
2023/08/21 04:45:37;;;;;;;125.07;28.05;;;;;;;18.02;81.04;97991.47;10366721;28;20080;-55
2023/08/21 04:50:36;;;;;;;59.22;20.25;;;;;;;18.16;81.24;98020.81;10371569;28;20133;-55
2023/08/21 04:55:36;;;;;;;18.98;13.85;;;;;;;18.14;80.94;98021.78;10372387;28;20053;-55
2023/08/21 05:00:36;;;;;;;25.25;15.95;;;;;;;18.17;81.17;98029.56;10371294;28;20155;-56
2023/08/21 05:05:35;;;;;;;21.13;16.48;;;;;;;18.17;81.34;98037.44;10370182;28;20048;-55
2023/08/21 05:10:34;;;;;;;20.33;16.70;;;;;;;18.02;81.34;97986.19;10371176;28;20057;-55
2023/08/21 05:15:33;;;;;;;22.90;16.75;;;;;;;18.26;81.19;98010.06;10328675;28;20037;-55
2023/08/21 05:20:32;;;;;;;24.08;16.35;;;;;;;17.82;80.31;97889.59;10328808;28;20031;-55
2023/08/21 05:25:32;;;;;;;27.25;15.98;;;;;;;18.89;79.71;98027.53;10328479;28;20043;-55
2023/08/21 05:30:31;;;;;;;23.70;16.00;;;;;;;19.03;78.32;98017.44;10328627;28;20053;-55
2023/08/21 05:35:35;;;;;;;19.80;16.42;;;;;;;19.07;77.82;97985.81;10328547;28;20037;-55
2023/08/21 05:40:34;;;;;;;24.80;15.32;;;;;;;19.47;77.08;98026.63;10328561;28;20117;-55
2023/08/21 05:45:33;;;;;;;24.80;16.50;;;;;;;19.29;76.78;97971.03;10304280;28;20045;-55
2023/08/21 05:50:32;;;;;;;25.65;15.65;;;;;;;19.94;75.67;98026.84;10328637;28;20033;-55
2023/08/21 05:55:32;;;;;;;24.40;15.80;;;;;;;20.09;74.95;98018.38;10328798;28;20072;-55
2023/08/21 06:00:33;;;;;;;27.40;14.98;;;;;;;20.35;74.17;98024.50;10328126;28;20053;-55
2023/08/21 06:05:32;;;;;;;21.65;14.55;;;;;;;20.71;72.84;98007.38;10328461;28;20065;-55
2023/08/21 06:10:31;;;;;;;21.27;15.65;;;;;;;20.94;71.14;98005.63;10328534;28;20025;-55
2023/08/21 06:15:30;;;;;;;20.27;14.45;;;;;;;21.13;70.86;98001.34;10325080;28;20059;-55
2023/08/21 06:20:29;;;;;;;22.95;14.75;;;;;;;21.42;69.74;98009.91;10325136;28;20040;-55
2023/08/21 06:25:30;;;;;;;21.50;13.90;;;;;;;21.67;68.42;98024.75;10324527;28;20117;-55
2023/08/21 06:30:29;;;;;;;23.15;15.20;;;;;;;21.95;67.33;98035.88;10324790;28;20108;-55
2023/08/21 06:35:28;;;;;;;21.10;11.95;;;;;;;22.14;65.84;98035.09;10324182;28;20021;-55
2023/08/21 06:40:27;;;;;;;18.45;12.30;;;;;;;22.41;63.94;98038.31;10324503;28;20104;-55
2023/08/21 06:45:30;;;;;;;16.77;11.32;;;;;;;22.63;63.21;98038.22;10323472;28;20144;-55
2023/08/21 06:50:29;;;;;;;15.38;10.85;;;;;;;22.97;59.38;98044.63;10324519;28;20115;-55
2023/08/21 06:55:28;;;;;;;19.30;11.90;;;;;;;23.16;60.17;98028.72;10324459;28;20120;-55
2023/08/21 07:00:27;;;;;;;19.60;12.32;;;;;;;23.55;59.53;98028.63;10324385;28;20067;-55
2023/08/21 07:05:26;;;;;;;17.65;10.32;;;;;;;23.81;57.52;98018.53;10324670;28;20116;-56
2023/08/21 07:10:25;;;;;;;15.05;10.27;;;;;;;23.45;57.12;97942.59;10322465;28;20117;-55
2023/08/21 07:15:24;;;;;;;13.68;10.02;;;;;;;24.15;55.66;98014.16;10322661;28;20458;-56
2023/08/21 07:20:23;;;;;;;22.15;10.43;;;;;;;24.32;55.22;98005.34;10321716;28;20104;-56
2023/08/21 07:25:22;;;;;;;20.52;10.02;;;;;;;24.44;54.67;97991.44;10321910;28;20091;-55
2023/08/21 07:30:22;;;;;;;15.02;9.98;;;;;;;24.74;53.49;98015.47;10327892;28;20056;-56
2023/08/21 07:35:21;;;;;;;13.98;9.10;;;;;;;25.03;52.75;98007.72;10331520;28;20353;-56
2023/08/21 07:40:20;;;;;;;9.55;8.15;;;;;;;25.18;51.92;98008.66;10333280;28;20028;-55
2023/08/21 07:45:19;;;;;;;9.02;8.02;;;;;;;25.43;51.71;97998.34;10333502;28;20061;-55
2023/08/21 07:50:18;;;;;;;13.95;8.65;;;;;;;25.84;51.74;97996.91;10332689;28;20068;-56
2023/08/21 07:55:17;;;;;;;10.57;8.32;;;;;;;26.14;51.13;97995.06;10333322;28;20057;-55
2023/08/21 08:00:16;;;;;;;12.73;8.40;;;;;;;26.39;50.23;97998.06;10332729;28;20060;-55
2023/08/21 08:05:15;;;;;;;11.68;8.93;;;;;;;26.66;49.77;97996.34;10332920;28;20056;-56
2023/08/21 08:10:14;;;;;;;12.73;8.32;;;;;;;26.97;49.32;97997.09;10332340;28;20159;-55
2023/08/21 08:15:13;;;;;;;13.73;9.15;;;;;;;27.18;48.71;97986.88;10330334;28;20036;-56
2023/08/21 08:20:12;;;;;;;12.32;9.70;;;;;;;27.53;47.19;97981.06;10329939;28;20029;-56
2023/08/21 08:25:11;;;;;;;17.08;9.90;;;;;;;27.72;46.05;97975.34;10325658;28;20064;-56
2023/08/21 08:30:11;;;;;;;15.13;9.27;;;;;;;28.01;44.37;97971.56;10338416;28;20029;-56
2023/08/21 08:35:09;;;;;;;14.07;8.85;;;;;;;28.33;44.16;97962.31;10333575;28;20052;-56
2023/08/21 08:40:10;;;;;;;14.27;8.60;;;;;;;28.34;43.11;97910.66;10330207;28;20396;-56
2023/08/21 08:45:13;;;;;;;10.63;6.97;;;;;;;28.74;43.14;97947.88;10330076;28;20140;-56
2023/08/21 08:50:13;;;;;;;10.80;7.60;;;;;;;28.71;42.03;97937.41;10330328;28;20804;-56
2023/08/21 08:55:12;;;;;;;10.55;6.65;;;;;;;28.95;41.41;97919.59;10327939;28;20080;-56
2023/08/21 09:00:12;;;;;;;8.63;6.95;;;;;;;29.27;40.77;97945.78;10329852;28;20038;-56
2023/08/21 09:05:11;;;;;;;9.88;7.13;;;;;;;29.35;40.09;97911.31;10327655;28;20057;-56
2023/08/21 09:10:17;;;;;;;10.80;6.57;;;;;;;29.04;37.94;97837.88;10326590;28;20033;-56
2023/08/21 09:15:16;;;;;;;8.90;7.10;;;;;;;29.86;38.49;97944.91;10323986;28;20068;-56
2023/08/21 09:20:15;;;;;;;10.43;6.35;;;;;;;30.15;38.94;97937.31;10327626;28;20069;-56
2023/08/21 09:25:14;;;;;;;8.43;6.63;;;;;;;30.31;37.73;97928.94;10326627;28;20025;-56
2023/08/21 09:30:15;;;;;;;11.35;6.93;;;;;;;29.86;37.62;97884.25;10327673;28;20037;-55
2023/08/21 09:35:14;;;;;;;12.07;8.63;;;;;;;30.08;37.12;97906.66;10327704;28;20163;-55
2023/08/21 09:40:15;;;;;;;9.95;6.75;;;;;;;30.50;37.04;97923.00;10328645;28;20049;-55
2023/08/21 09:45:19;;;;;;;9.02;6.63;;;;;;;30.78;36.08;97910.91;10324702;28;20131;-57
2023/08/21 09:50:19;;;;;;;8.82;6.25;;;;;;;31.06;36.00;97911.38;10327110;28;20124;-56
2023/08/21 09:55:18;;;;;;;11.80;7.45;;;;;;;31.20;35.90;97911.06;10328036;28;20528;-56
2023/08/21 10:00:20;;;;;;;10.63;6.18;;;;;;;31.08;35.30;97883.47;10327212;28;20079;-56
2023/08/21 10:05:19;;;;;;;8.02;5.72;;;;;;;31.42;34.32;97896.72;10327495;28;20117;-56
2023/08/21 10:10:19;;;;;;;9.48;6.32;;;;;;;31.49;33.80;97886.31;10326308;28;20065;-57
2023/08/21 10:15:18;;;;;;;9.93;6.15;;;;;;;31.64;34.01;97890.44;10324523;28;20125;-57
2023/08/21 10:20:24;;;;;;;9.75;6.50;;;;;;;31.82;33.99;97881.75;10324138;28;20056;-57
2023/08/21 10:25:25;;;;;;;9.20;6.10;;;;;;;31.73;33.19;97869.97;10325740;28;20057;-57
2023/08/21 10:30:26;;;;;;;11.52;6.10;;;;;;;31.79;33.19;97845.31;10326889;28;20148;-57
2023/08/21 10:35:30;;;;;;;8.00;5.88;;;;;;;32.20;32.98;97856.97;10331270;28;20120;-57
2023/08/21 10:40:30;;;;;;;7.68;5.60;;;;;;;32.36;31.82;97849.25;10329517;28;20112;-57
2023/08/21 10:45:30;;;;;;;7.75;5.88;;;;;;;32.56;32.53;97846.66;10329210;28;20148;-57
2023/08/21 10:50:29;;;;;;;9.55;5.82;;;;;;;32.66;31.32;97788.41;10328007;28;20112;-57
2023/08/21 10:55:28;;;;;;;10.52;7.10;;;;;;;33.14;30.27;97843.22;10327680;28;20029;-57
2023/08/21 11:00:27;;;;;;;9.02;6.40;;;;;;;33.09;29.73;97830.22;10324858;28;20564;-57
2023/08/21 11:05:28;;;;;;;8.30;6.13;;;;;;;32.84;30.63;97828.91;10324091;28;20556;-57
2023/08/21 11:10:30;;;;;;;7.25;5.85;;;;;;;32.62;30.55;97829.97;10326238;28;20496;-57
2023/08/21 11:15:29;;;;;;;8.52;5.90;;;;;;;32.52;30.16;97821.03;10322884;28;20116;-56
2023/08/21 11:20:33;;;;;;;9.20;5.80;;;;;;;32.11;31.05;97719.03;10328403;28;20433;-57
2023/08/21 11:25:33;;;;;;;8.13;5.78;;;;;;;32.79;30.55;97826.63;10324751;28;20548;-57
2023/08/21 11:30:35;;;;;;;7.68;6.13;;;;;;;33.17;30.81;97816.91;10323019;28;20116;-57
2023/08/21 11:35:34;;;;;;;11.40;6.18;;;;;;;33.16;30.88;97776.69;10316802;28;21055;-57
2023/08/21 11:40:36;;;;;;;7.07;5.47;;;;;;;33.47;30.26;97806.97;10327450;28;20448;-57
2023/08/21 11:45:35;;;;;;;7.78;5.75;;;;;;;33.65;29.66;97810.63;10328668;28;20147;-57
2023/08/21 11:50:34;;;;;;;11.88;6.07;;;;;;;33.88;29.63;97805.72;10326220;28;20064;-57
2023/08/21 11:55:34;;;;;;;9.88;6.00;;;;;;;33.88;28.31;97803.03;10326747;28;20584;-57
2023/08/21 12:00:33;;;;;;;8.50;5.78;;;;;;;33.94;28.34;97784.59;10325926;28;20132;-57
2023/08/21 12:05:33;;;;;;;7.72;6.05;;;;;;;34.09;28.36;97792.03;10329015;28;20112;-57
2023/08/21 12:10:32;;;;;;;5.90;5.30;;;;;;;34.15;28.00;97796.00;10328143;28;20799;-57
2023/08/21 12:15:31;;;;;;;8.35;5.75;;;;;;;34.22;27.66;97791.72;10326489;28;20531;-57
2023/08/21 12:20:30;;;;;;;5.90;5.20;;;;;;;34.21;27.60;97768.47;10327854;28;20025;-57
2023/08/21 12:25:30;;;;;;;7.47;5.40;;;;;;;34.08;27.39;97763.41;10325527;28;20069;-57
2023/08/21 12:30:29;;;;;;;9.32;5.60;;;;;;;33.92;27.50;97779.34;10326248;28;20144;-57
2023/08/21 12:35:28;;;;;;;7.78;5.78;;;;;;;33.71;26.97;97776.06;10329784;28;20126;-57
2023/08/21 12:40:27;;;;;;;9.45;6.20;;;;;;;33.76;27.29;97739.59;10326450;28;20061;-57
2023/08/21 12:45:26;;;;;;;8.65;6.00;;;;;;;33.84;27.08;97734.34;10327709;28;20045;-57
2023/08/21 12:50:25;;;;;;;7.90;5.75;;;;;;;34.04;27.10;97761.16;10328992;28;20548;-57
2023/08/21 12:55:24;;;;;;;8.27;5.53;;;;;;;33.97;27.49;97711.59;10328462;28;20052;-57
2023/08/21 13:00:23;;;;;;;7.20;5.80;;;;;;;34.13;27.32;97730.69;10324493;28;20037;-57
2023/08/21 13:05:22;;;;;;;8.32;5.82;;;;;;;34.05;27.67;97739.47;10328585;28;20037;-57
2023/08/21 13:10:21;;;;;;;10.68;6.00;;;;;;;34.25;27.48;97726.75;10328333;28;20034;-57
2023/08/21 13:15:20;;;;;;;8.60;6.28;;;;;;;34.60;26.99;97718.88;10326125;28;20622;-57
2023/08/21 13:20:19;;;;;;;10.75;6.45;;;;;;;34.48;28.00;97700.22;10327540;28;20029;-58
2023/08/21 13:25:19;;;;;;;9.63;6.38;;;;;;;34.24;27.64;97698.16;10326937;28;20112;-57
2023/08/21 13:30:20;;;;;;;8.02;6.20;;;;;;;34.59;26.69;97722.53;10327983;28;20475;-57
2023/08/21 13:35:20;;;;;;;9.13;5.65;;;;;;;34.67;26.03;97701.09;10322470;28;20136;-57
2023/08/21 13:40:19;;;;;;;6.70;5.85;;;;;;;34.91;26.29;97719.31;10323901;28;20068;-57
2023/08/21 13:45:19;;;;;;;9.15;5.70;;;;;;;34.93;25.51;97712.78;10327184;28;20061;-57
2023/08/21 13:50:19;;;;;;;10.65;6.60;;;;;;;34.54;26.49;97703.31;10326232;28;20140;-57
2023/08/21 13:55:18;;;;;;;7.35;6.15;;;;;;;34.05;27.82;97709.88;10326870;28;20479;-57
2023/08/21 14:00:18;;;;;;;7.20;6.45;;;;;;;33.97;27.98;97658.59;10326998;28;20053;-57
2023/08/21 14:05:17;;;;;;;7.90;6.13;;;;;;;34.27;27.84;97702.38;10326558;28;20557;-56
2023/08/21 14:10:16;;;;;;;9.95;6.40;;;;;;;34.29;27.46;97701.22;10325064;28;20073;-56
2023/08/21 14:15:15;;;;;;;11.07;6.22;;;;;;;34.50;27.13;97692.84;10324625;28;20029;-56
2023/08/21 14:20:14;;;;;;;8.52;5.95;;;;;;;34.21;26.95;97698.44;10325606;28;20552;-56
2023/08/21 14:25:15;;;;;;;9.43;5.40;;;;;;;33.93;27.50;97650.97;10325053;28;20551;-55
2023/08/21 14:30:14;;;;;;;10.02;6.50;;;;;;;34.14;28.02;97701.88;10324033;28;20128;-56
2023/08/21 14:35:13;;;;;;;9.48;6.28;;;;;;;34.01;26.73;97648.38;10326358;28;20513;-56
2023/08/21 14:40:12;;;;;;;8.60;6.00;;;;;;;34.21;25.84;97700.28;10327419;28;20439;-56
2023/08/21 14:45:11;;;;;;;12.48;6.70;;;;;;;34.16;26.14;97654.13;10327477;28;20167;-56
2023/08/21 14:50:10;;;;;;;9.68;6.82;;;;;;;34.40;26.25;97691.22;10326586;28;20124;-56
2023/08/21 14:55:09;;;;;;;8.32;6.07;;;;;;;34.35;26.29;97680.91;10326421;28;20072;-56
2023/08/21 15:00:09;;;;;;;9.48;5.93;;;;;;;34.29;25.65;97703.06;10327681;28;20030;-56
2023/08/21 15:05:09;;;;;;;8.20;5.88;;;;;;;34.20;26.49;97664.44;10320224;28;20473;-56
2023/08/21 15:10:09;;;;;;;10.73;7.60;;;;;;;34.15;26.59;97657.81;10327498;28;20060;-56
2023/08/21 15:15:09;;;;;;;10.05;6.47;;;;;;;33.97;25.71;97638.91;10321945;28;20112;-57
2023/08/21 15:20:08;;;;;;;11.85;10.57;;;;;;;34.34;26.43;97694.53;10325939;28;20064;-57
2023/08/21 15:25:08;;;;;;;8.30;6.45;;;;;;;34.26;26.79;97685.38;10325908;28;20057;-57
2023/08/21 15:30:07;;;;;;;9.82;7.85;;;;;;;33.93;27.32;97641.03;10326208;28;20053;-57
2023/08/21 15:35:06;;;;;;;14.52;7.60;;;;;;;34.18;27.10;97692.53;10325549;28;20065;-57
2023/08/21 15:40:07;;;;;;;10.18;7.28;;;;;;;34.08;27.38;97685.31;10324011;28;20113;-57
2023/08/21 15:45:06;;;;;;;19.05;16.52;;;;;;;34.11;27.65;97683.34;10323790;28;20089;-57
2023/08/21 15:50:06;;;;;;;8.88;7.00;;;;;;;34.09;27.62;97684.31;10326120;28;20232;-57
2023/08/21 15:55:05;;;;;;;9.98;6.68;;;;;;;33.86;27.22;97667.75;10329821;28;20527;-57
2023/08/21 16:00:05;;;;;;;8.45;6.82;;;;;;;33.48;27.02;97671.44;10329482;28;20061;-57
2023/08/21 16:05:04;;;;;;;12.88;6.85;;;;;;;33.38;28.14;97689.47;10329390;28;20116;-57
2023/08/21 16:10:04;;;;;;;11.32;7.68;;;;;;;33.25;28.06;97685.25;10329221;28;20125;-56
2023/08/21 16:15:04;;;;;;;12.00;7.90;;;;;;;33.04;27.91;97671.13;10328988;28;20061;-57
2023/08/21 16:20:04;;;;;;;9.15;6.72;;;;;;;33.00;27.44;97694.78;10330564;28;20653;-57
2023/08/21 16:25:04;;;;;;;12.90;6.85;;;;;;;32.79;28.40;97699.47;10332672;28;20128;-57
2023/08/21 16:30:04;;;;;;;10.90;6.00;;;;;;;32.56;29.03;97691.66;10329755;28;20158;-57
2023/08/21 16:35:04;;;;;;;10.82;6.50;;;;;;;32.41;29.70;97706.50;10325906;28;20132;-57
2023/08/21 16:40:04;;;;;;;8.00;6.68;;;;;;;32.01;30.72;97678.72;10330068;28;20061;-57
2023/08/21 16:45:03;;;;;;;12.57;7.10;;;;;;;31.93;30.74;97707.25;10330420;28;20076;-57
2023/08/21 16:50:02;;;;;;;12.30;7.38;;;;;;;31.68;31.15;97709.41;10326138;28;20149;-57
2023/08/21 16:55:03;;;;;;;13.18;7.65;;;;;;;31.24;31.97;97675.72;10322784;28;20774;-57
2023/08/21 17:00:06;;;;;;;9.60;7.47;;;;;;;31.28;32.48;97722.75;10326610;28;20586;-56
2023/08/21 17:05:05;;;;;;;11.02;8.02;;;;;;;30.69;33.17;97687.50;10326416;28;20076;-56
2023/08/21 17:10:08;;;;;;;12.18;9.77;;;;;;;30.74;34.30;97738.00;10326569;28;20425;-56
2023/08/21 17:15:08;;;;;;;15.23;9.30;;;;;;;29.35;35.86;97590.53;10324372;28;20061;-56
2023/08/21 17:20:09;;;;;;;9.18;7.82;;;;;;;29.09;36.59;97638.88;10319759;28;20136;-56
2023/08/21 17:25:08;;;;;;;10.38;8.23;;;;;;;29.52;36.65;97762.97;10321418;28;20123;-56
2023/08/21 17:30:08;;;;;;;10.48;7.45;;;;;;;29.15;36.86;97736.38;10326068;28;20087;-56
2023/08/21 17:35:07;;;;;;;8.68;7.63;;;;;;;29.11;37.03;97769.69;10325027;28;20584;-56
2023/08/21 17:40:07;;;;;;;9.98;7.82;;;;;;;28.47;37.11;97700.56;10328522;28;20053;-57
2023/08/21 17:45:06;;;;;;;11.32;8.45;;;;;;;28.66;37.01;97774.81;10324488;28;20077;-56
2023/08/21 17:50:07;;;;;;;11.35;8.05;;;;;;;28.22;37.64;97745.13;10328083;28;20072;-56
2023/08/21 17:55:06;;;;;;;12.48;9.60;;;;;;;28.16;38.74;97780.22;10325821;28;20068;-56
2023/08/21 18:00:08;;;;;;;15.43;10.50;;;;;;;28.05;39.35;97794.31;10326981;28;20465;-56
2023/08/21 18:05:07;;;;;;;13.43;9.25;;;;;;;27.81;40.78;97799.56;10328131;28;20515;-56
2023/08/21 18:10:08;;;;;;;11.27;8.60;;;;;;;27.59;41.14;97786.06;10325854;28;20365;-56
2023/08/21 18:15:08;;;;;;;12.82;9.07;;;;;;;27.05;41.86;97756.88;10326537;28;20049;-56
2023/08/21 18:20:07;;;;;;;11.98;8.90;;;;;;;27.21;42.64;97810.81;10326102;28;20065;-56
2023/08/21 18:25:07;;;;;;;13.75;9.25;;;;;;;27.07;42.63;97818.91;10325883;28;20053;-55
2023/08/21 18:30:18;;;;;;;12.52;9.25;;;;;;;26.76;43.43;97818.25;10326977;28;20536;-56
2023/08/21 18:35:17;;;;;;;11.68;9.65;;;;;;;26.58;43.78;97823.84;10318164;28;20148;-55
2023/08/21 18:40:16;;;;;;;12.05;10.52;;;;;;;25.73;43.87;97703.34;10321335;28;20404;-55
2023/08/21 18:45:16;;;;;;;13.73;9.68;;;;;;;26.34;44.01;97825.41;10320596;28;20049;-55
2023/08/21 18:50:22;;;;;;;12.10;9.93;;;;;;;26.35;44.46;97837.78;10321277;28;20119;-56
2023/08/21 18:55:21;;;;;;;13.20;9.80;;;;;;;26.25;44.46;97836.63;10322262;28;20502;-56
2023/08/21 19:00:20;;;;;;;12.82;9.55;;;;;;;26.04;45.16;97818.41;10322783;28;20488;-55
2023/08/21 19:05:20;;;;;;;11.63;9.38;;;;;;;26.00;45.61;97835.50;10320760;28;20061;-56
2023/08/21 19:10:19;;;;;;;15.15;9.30;;;;;;;25.92;45.79;97848.41;10321327;28;20121;-56
2023/08/21 19:15:19;;;;;;;13.02;10.02;;;;;;;25.77;46.15;97867.97;10321519;28;20117;-55
2023/08/21 19:20:18;;;;;;;15.93;10.90;;;;;;;25.18;50.05;97887.34;10337671;28;20453;-56
2023/08/21 19:25:17;;;;;;;14.98;10.63;;;;;;;24.96;50.28;97878.91;10320503;28;20482;-56
2023/08/21 19:30:17;;;;;;;14.38;10.05;;;;;;;24.95;50.83;97886.03;10321901;28;20124;-56
2023/08/21 19:35:16;;;;;;;18.27;10.98;;;;;;;24.93;50.74;97893.22;10321787;28;20057;-56
2023/08/21 19:40:15;;;;;;;13.77;11.05;;;;;;;24.83;51.14;97890.19;10322251;28;20132;-56
2023/08/21 19:45:19;;;;;;;15.35;11.00;;;;;;;24.46;50.98;97836.53;10320677;28;20123;-56
2023/08/21 19:50:18;;;;;;;16.08;10.50;;;;;;;23.82;51.29;97747.31;10322432;28;20108;-56
2023/08/21 19:55:17;;;;;;;15.13;10.95;;;;;;;24.60;51.41;97885.34;10320228;28;20064;-56
2023/08/21 20:00:16;;;;;;;14.57;10.00;;;;;;;24.25;51.38;97835.94;10320396;28;20060;-56
2023/08/21 20:05:15;;;;;;;11.10;9.88;;;;;;;24.51;51.23;97896.47;10321097;28;20209;-56
2023/08/21 20:10:14;;;;;;;15.55;9.85;;;;;;;24.45;51.39;97889.66;10320362;28;20125;-55
2023/08/21 20:15:14;;;;;;;12.05;10.43;;;;;;;24.46;51.15;97902.00;10320680;28;20460;-56
2023/08/21 20:20:13;;;;;;;13.25;10.52;;;;;;;24.22;52.49;97893.63;10320591;28;20485;-56
2023/08/21 20:25:12;;;;;;;13.65;10.98;;;;;;;24.06;52.86;97882.94;10319748;28;20496;-56
2023/08/21 20:30:12;;;;;;;13.75;10.32;;;;;;;24.12;54.01;97906.44;10321024;28;20108;-56
2023/08/21 20:35:11;;;;;;;13.98;11.00;;;;;;;23.95;54.58;97909.16;10322606;28;20204;-56
2023/08/21 20:40:10;;;;;;;14.52;11.27;;;;;;;23.77;55.35;97913.63;10325635;28;20057;-56
2023/08/21 20:45:10;;;;;;;15.85;11.73;;;;;;;23.75;55.52;97908.41;10326733;28;20124;-56
2023/08/21 20:50:10;;;;;;;16.55;12.02;;;;;;;23.62;55.61;97902.03;10327524;28;20065;-56
2023/08/21 20:55:09;;;;;;;14.05;10.63;;;;;;;23.73;55.43;97917.38;10326683;28;20539;-56
2023/08/21 21:00:09;;;;;;;13.93;10.90;;;;;;;23.71;55.48;97927.19;10327118;28;20072;-56
2023/08/21 21:05:09;;;;;;;17.63;12.38;;;;;;;23.58;56.52;97932.25;10324357;28;20068;-55
2023/08/21 21:10:09;;;;;;;14.43;11.82;;;;;;;23.46;56.39;97915.16;10325354;28;20116;-55
2023/08/21 21:15:08;;;;;;;15.18;10.88;;;;;;;23.47;56.42;97926.63;10326247;28;20064;-55
2023/08/21 21:20:07;;;;;;;14.40;11.48;;;;;;;23.39;56.59;97933.16;10325402;28;20768;-55
2023/08/21 21:25:07;;;;;;;14.38;11.13;;;;;;;23.32;57.52;97926.44;10323639;28;20552;-55
2023/08/21 21:30:07;;;;;;;17.35;12.32;;;;;;;23.30;57.59;97932.75;10325555;28;20124;-55
2023/08/21 21:35:07;;;;;;;20.67;12.82;;;;;;;23.22;58.20;97931.34;10323584;28;20149;-55
2023/08/21 21:40:06;;;;;;;16.92;12.65;;;;;;;23.21;57.79;97931.44;10325886;28;20460;-55
2023/08/21 21:45:06;;;;;;;14.88;11.95;;;;;;;23.20;58.45;97933.22;10323074;28;20073;-55
2023/08/21 21:50:06;;;;;;;16.95;11.70;;;;;;;23.09;59.12;97940.84;10320028;28;20248;-55
2023/08/21 21:55:05;;;;;;;15.95;11.30;;;;;;;22.96;59.81;97935.28;10322565;28;20124;-55
2023/08/21 22:00:08;;;;;;;13.68;10.45;;;;;;;22.54;60.20;97912.53;10324408;28;20060;-55
2023/08/21 22:05:08;;;;;;;13.25;10.43;;;;;;;22.62;60.44;97941.25;10322990;28;20112;-55
2023/08/21 22:10:07;;;;;;;12.70;11.13;;;;;;;22.38;61.32;97941.47;10326692;28;20064;-55
2023/08/21 22:15:07;;;;;;;13.57;10.98;;;;;;;22.30;62.17;97950.72;10325061;28;20060;-55
2023/08/21 22:20:08;;;;;;;12.65;11.32;;;;;;;22.03;63.01;97943.06;10323142;28;20112;-55
2023/08/21 22:25:07;;;;;;;14.25;11.90;;;;;;;21.84;64.27;97931.56;10325196;28;20052;-55
2023/08/21 22:30:07;;;;;;;13.07;10.90;;;;;;;21.48;64.14;97888.19;10326156;28;20112;-55
2023/08/21 22:35:06;;;;;;;15.57;12.27;;;;;;;21.86;63.69;97941.13;10326107;28;20099;-55
2023/08/21 22:40:06;;;;;;;13.52;12.10;;;;;;;21.83;63.87;97937.75;10325148;28;20041;-55
2023/08/21 22:45:05;;;;;;;15.15;11.93;;;;;;;21.83;64.16;97937.75;10324840;28;20080;-55
2023/08/21 22:50:05;;;;;;;14.55;12.30;;;;;;;21.83;64.50;97938.63;10321088;28;20162;-55